Time;durP1;ratioP1;P1;durP2;ratioP2;P2;SDS_P1;SDS_P2;PMS_P1;PMS_P2;Temp;Humidity;BMP_temperature;BMP_pressure;BME280_temperature;BME280_humidity;BME280_pressure;Samples;Min_cycle;Max_cycle;Signal;HPM_P1;HPM_P2
2023/03/31 00:01:03;;;;;;;3.05;2.75;;;;;;;;;;10314024;28;20068;-66
2023/03/31 00:06:02;;;;;;;3.42;2.85;;;;;;;;;;10311943;28;20083;-66
2023/03/31 00:11:01;;;;;;;3.55;3.25;;;;;;;;;;10313340;28;20090;-65
2023/03/31 00:16:03;;;;;;;3.33;3.03;;;;;;;;;;10312387;28;20080;-66
2023/03/31 00:21:07;;;;;;;3.42;2.88;;;;;;;;;;10313034;28;20068;-66
2023/03/31 00:26:05;;;;;;;4.50;2.83;;;;;;;;;;10314545;28;20051;-66
2023/03/31 00:31:05;;;;;;;3.10;2.60;;;;;;;;;;10316065;28;20666;-66
2023/03/31 00:36:04;;;;;;;2.95;2.75;;;;;;;;;;10311897;28;20080;-66
2023/03/31 00:41:05;;;;;;;3.40;3.10;;;;;;;;;;10311386;28;20049;-66
2023/03/31 00:46:07;;;;;;;4.72;2.50;;;;;;;;;;10317385;28;20041;-66
2023/03/31 00:51:07;;;;;;;3.28;2.85;;;;;;;;;;10319891;28;20538;-66
2023/03/31 00:56:06;;;;;;;4.35;3.65;;;;;;;;;;10319963;28;20532;-66
2023/03/31 01:01:07;;;;;;;3.70;2.50;;;;;;;;;;10319951;28;20538;-66
2023/03/31 01:06:09;;;;;;;3.55;2.97;;;;;;;;;;10306374;28;20446;-66
2023/03/31 01:11:09;;;;;;;2.90;2.60;;;;;;;;;;10319143;28;20541;-66
2023/03/31 01:16:09;;;;;;;3.92;3.20;;;;;;;;;;10319013;28;20083;-66
2023/03/31 01:21:18;;;;;;;4.10;3.70;;;;;;;;;;10319217;28;20119;-66
2023/03/31 01:26:37;;;;;;;3.17;2.80;;;;;;;;;;10305675;28;20063;-66
2023/03/31 01:31:57;;;;;;;3.88;2.67;;;;;;;;;;10311684;28;20053;-66
2023/03/31 01:37:16;;;;;;;2.55;2.20;;;;;;;;;;10307371;28;20068;-66
2023/03/31 01:42:18;;;;;;;4.63;3.13;;;;;;;;;;10318547;28;20052;-66
2023/03/31 01:47:21;;;;;;;3.38;3.08;;;;;;;;;;10318042;28;20041;-66
2023/03/31 01:52:23;;;;;;;3.55;3.08;;;;;;;;;;10317902;28;20057;-67
2023/03/31 01:57:26;;;;;;;5.40;3.05;;;;;;;;;;10314458;28;20084;-65
2023/03/31 02:02:28;;;;;;;3.15;2.90;;;;;;;;;;10316500;28;20052;-65
2023/03/31 02:07:28;;;;;;;4.47;2.97;;;;;;;;;;10315917;28;20044;-65
2023/03/31 02:12:30;;;;;;;4.72;3.80;;;;;;;;;;10302409;28;20049;-65
2023/03/31 02:17:31;;;;;;;3.88;3.10;;;;;;;;;;10314500;28;20083;-65
2023/03/31 02:22:31;;;;;;;4.38;3.10;;;;;;;;;;10317041;28;20064;-65
2023/03/31 02:27:33;;;;;;;3.47;3.17;;;;;;;;;;10316877;28;20057;-65
2023/03/31 02:32:34;;;;;;;3.00;2.70;;;;;;;;;;10314766;28;20084;-65
2023/03/31 02:37:32;;;;;;;3.15;2.85;;;;;;;;;;10314432;28;20083;-66
2023/03/31 02:42:32;;;;;;;5.70;4.70;;;;;;;;;;10314399;28;20075;-66
2023/03/31 02:47:30;;;;;;;5.05;3.67;;;;;;;;;;10303845;28;20053;-66
2023/03/31 02:52:44;;;;;;;3.75;2.85;;;;;;;;;;10313402;28;20072;-66
2023/03/31 02:58:06;;;;;;;3.88;3.15;;;;;;;;;;10313907;28;20095;-66
2023/03/31 03:03:14;;;;;;;3.47;2.75;;;;;;;;;;10300859;28;20087;-66
2023/03/31 03:08:18;;;;;;;4.18;3.78;;;;;;;;;;10313589;28;20556;-66
2023/03/31 03:13:18;;;;;;;3.45;2.95;;;;;;;;;;10314148;28;20047;-66
2023/03/31 03:18:17;;;;;;;5.38;3.60;;;;;;;;;;10302001;28;20140;-66
2023/03/31 03:23:15;;;;;;;5.50;4.00;;;;;;;;;;10314149;28;20075;-66
2023/03/31 03:28:13;;;;;;;3.88;3.03;;;;;;;;;;10315138;28;20067;-66
2023/03/31 03:33:15;;;;;;;3.40;2.95;;;;;;;;;;10314878;28;20072;-66
2023/03/31 03:38:16;;;;;;;4.55;3.60;;;;;;;;;;10313724;28;20087;-66
2023/03/31 03:43:14;;;;;;;3.65;3.30;;;;;;;;;;10314835;28;20068;-66
2023/03/31 03:48:13;;;;;;;4.10;3.35;;;;;;;;;;10300945;28;20056;-66
2023/03/31 03:53:11;;;;;;;8.45;4.88;;;;;;;;;;10299621;28;20068;-66
2023/03/31 03:58:11;;;;;;;9.35;7.43;;;;;;;;;;10314693;28;20080;-66
2023/03/31 04:03:09;;;;;;;4.25;3.50;;;;;;;;;;10286438;28;20071;-66
2023/03/31 04:08:07;;;;;;;17.08;8.45;;;;;;;;;;10286121;28;20081;-68
2023/03/31 04:13:05;;;;;;;11.85;9.38;;;;;;;;;;10287398;28;20072;-65
2023/03/31 04:18:05;;;;;;;6.00;4.78;;;;;;;;;;10285252;28;20076;-65
2023/03/31 04:23:04;;;;;;;6.90;5.00;;;;;;;;;;10277583;28;20057;-65
2023/03/31 04:28:05;;;;;;;4.00;3.60;;;;;;;;;;10276152;28;20052;-65
2023/03/31 04:33:05;;;;;;;6.63;4.40;;;;;;;;;;10286626;28;20071;-65
2023/03/31 04:38:03;;;;;;;4.82;4.35;;;;;;;;;;10300626;28;20064;-66
2023/03/31 04:43:01;;;;;;;5.30;4.70;;;;;;;;;;10306752;28;20083;-66
2023/03/31 04:48:00;;;;;;;7.13;5.75;;;;;;;;;;10320198;28;20068;-66
2023/03/31 04:52:59;;;;;;;8.43;6.45;;;;;;;;;;10288542;28;20064;-66
2023/03/31 04:57:57;;;;;;;8.77;5.78;;;;;;;;;;10298481;28;20079;-66
2023/03/31 05:02:57;;;;;;;6.10;5.05;;;;;;;;;;10285770;28;20132;-65
2023/03/31 05:07:55;;;;;;;6.40;5.13;;;;;;;;;;10299979;28;20064;-67
2023/03/31 05:12:55;;;;;;;5.55;4.93;;;;;;;;;;10280659;28;20076;-67
2023/03/31 05:17:53;;;;;;;5.03;4.53;;;;;;;;;;10277868;28;20095;-67
2023/03/31 05:22:51;;;;;;;11.07;5.72;;;;;;;;;;10290755;28;20056;-67
2023/03/31 05:27:49;;;;;;;6.32;5.30;;;;;;;;;;10279051;28;20079;-67
2023/03/31 05:32:49;;;;;;;8.32;7.18;;;;;;;;;;10287174;28;20084;-66
2023/03/31 05:37:47;;;;;;;23.45;21.15;;;;;;;;;;10278569;28;20065;-67
2023/03/31 05:42:46;;;;;;;10.93;9.00;;;;;;;;;;10280411;28;20069;-67
2023/03/31 05:47:44;;;;;;;9.38;8.57;;;;;;;;;;10288088;28;20071;-67
2023/03/31 05:52:44;;;;;;;8.30;7.22;;;;;;;;;;10284392;28;20073;-66
2023/03/31 05:57:42;;;;;;;10.40;8.20;;;;;;;;;;10288004;28;20068;-67
2023/03/31 06:02:41;;;;;;;10.88;9.75;;;;;;;;;;10298186;28;20079;-66
2023/03/31 06:07:39;;;;;;;9.20;7.93;;;;;;;;;;10294686;28;20591;-66
2023/03/31 06:12:39;;;;;;;11.00;8.95;;;;;;;;;;10308216;28;20072;-67
2023/03/31 06:17:37;;;;;;;20.50;17.23;;;;;;;;;;10313665;28;20068;-66
2023/03/31 06:22:36;;;;;;;13.85;11.73;;;;;;;;;;10312114;28;20072;-66
2023/03/31 06:27:34;;;;;;;14.52;9.80;;;;;;;;;;10315328;28;20478;-66
2023/03/31 06:32:33;;;;;;;11.75;10.25;;;;;;;;;;10313852;28;20064;-67
2023/03/31 06:37:32;;;;;;;13.07;9.93;;;;;;;;;;10315387;28;20071;-66
2023/03/31 06:42:30;;;;;;;11.93;8.95;;;;;;;;;;10315035;28;20072;-67
2023/03/31 06:47:28;;;;;;;16.83;12.45;;;;;;;;;;10315790;28;20084;-66
2023/03/31 06:52:28;;;;;;;19.10;13.13;;;;;;;;;;10315454;28;20036;-66
2023/03/31 06:57:26;;;;;;;15.45;11.07;;;;;;;;;;10315978;28;20076;-66
2023/03/31 07:02:24;;;;;;;14.05;11.27;;;;;;;;;;10315682;28;20060;-67
2023/03/31 07:07:23;;;;;;;10.10;7.75;;;;;;;;;;10314853;28;20080;-67
2023/03/31 07:12:22;;;;;;;8.57;7.07;;;;;;;;;;10315343;28;20072;-66
2023/03/31 07:17:20;;;;;;;12.70;7.15;;;;;;;;;;10312991;28;20528;-66
2023/03/31 07:22:18;;;;;;;9.50;7.38;;;;;;;;;;10304216;28;20481;-66
2023/03/31 07:27:17;;;;;;;7.60;6.75;;;;;;;;;;10315520;28;20044;-66
2023/03/31 07:32:16;;;;;;;6.57;5.40;;;;;;;;;;10315025;28;20068;-66
2023/03/31 07:37:15;;;;;;;7.32;6.43;;;;;;;;;;10314612;28;20084;-66
2023/03/31 07:42:13;;;;;;;7.97;7.18;;;;;;;;;;10307759;28;20064;-66
2023/03/31 07:47:11;;;;;;;7.80;7.00;;;;;;;;;;10308340;28;20467;-67
2023/03/31 07:52:10;;;;;;;8.07;6.28;;;;;;;;;;10300848;28;20072;-66
2023/03/31 07:57:09;;;;;;;6.80;6.20;;;;;;;;;;10322134;28;20536;-65
2023/03/31 08:02:07;;;;;;;7.88;7.15;;;;;;;;;;10321978;28;20071;-66
2023/03/31 08:07:05;;;;;;;8.52;7.53;;;;;;;;;;10322395;28;20075;-66
2023/03/31 08:12:05;;;;;;;12.07;9.55;;;;;;;;;;10322073;28;20083;-66
2023/03/31 08:17:03;;;;;;;13.55;12.23;;;;;;;;;;10321498;28;20080;-66
2023/03/31 08:22:01;;;;;;;9.45;6.53;;;;;;;;;;10321600;28;20071;-66
2023/03/31 08:26:59;;;;;;;8.70;6.35;;;;;;;;;;10308303;28;20068;-68
2023/03/31 08:31:59;;;;;;;12.63;8.60;;;;;;;;;;10320534;28;20464;-67
2023/03/31 08:36:57;;;;;;;14.00;9.65;;;;;;;;;;10320908;28;20063;-67
2023/03/31 08:41:58;;;;;;;14.82;11.40;;;;;;;;;;10320881;28;20079;-67
2023/03/31 08:46:57;;;;;;;13.50;10.20;;;;;;;;;;10320588;28;20109;-66
2023/03/31 08:51:58;;;;;;;9.70;8.48;;;;;;;;;;10320747;28;20079;-67
2023/03/31 08:56:56;;;;;;;6.70;6.00;;;;;;;;;;10320596;28;20056;-67
2023/03/31 09:01:58;;;;;;;9.77;7.75;;;;;;;;;;10319979;28;20068;-66
2023/03/31 09:07:03;;;;;;;10.75;5.30;;;;;;;;;;10317282;28;20055;-67
2023/03/31 09:12:06;;;;;;;7.63;4.70;;;;;;;;;;10318500;28;20048;-67
2023/03/31 09:17:12;;;;;;;8.48;7.43;;;;;;;;;;10319667;28;20044;-68
2023/03/31 09:22:14;;;;;;;6.90;5.38;;;;;;;;;;10307383;28;20058;-68
2023/03/31 09:27:12;;;;;;;9.68;6.55;;;;;;;;;;10319409;28;20064;-68
2023/03/31 09:32:14;;;;;;;10.93;6.75;;;;;;;;;;10318772;28;20083;-68
2023/03/31 09:37:14;;;;;;;7.03;4.50;;;;;;;;;;10317815;28;20513;-68
2023/03/31 09:42:13;;;;;;;7.88;5.15;;;;;;;;;;10318359;28;20475;-67
2023/03/31 09:47:13;;;;;;;9.45;5.18;;;;;;;;;;10318711;28;20175;-68
2023/03/31 09:52:13;;;;;;;6.38;4.72;;;;;;;;;;10318479;28;20076;-68
2023/03/31 09:57:15;;;;;;;5.95;5.07;;;;;;;;;;10318097;28;20532;-68
2023/03/31 10:02:22;;;;;;;7.38;5.68;;;;;;;;;;10317886;28;20087;-67
2023/03/31 10:07:21;;;;;;;8.05;5.25;;;;;;;;;;10317741;28;20092;-68
2023/03/31 10:12:23;;;;;;;7.63;5.95;;;;;;;;;;10306821;28;20044;-68
2023/03/31 10:17:22;;;;;;;8.93;7.25;;;;;;;;;;10321306;28;20545;-68
2023/03/31 10:22:27;;;;;;;10.80;7.43;;;;;;;;;;10317304;28;20076;-68
2023/03/31 10:27:28;;;;;;;10.00;7.57;;;;;;;;;;10317132;28;20040;-68
2023/03/31 10:32:28;;;;;;;15.43;11.82;;;;;;;;;;10317230;28;20078;-68
2023/03/31 10:37:28;;;;;;;13.40;8.68;;;;;;;;;;10316579;28;20474;-68
2023/03/31 10:42:28;;;;;;;11.65;10.02;;;;;;;;;;10315962;28;20084;-67
2023/03/31 10:47:26;;;;;;;10.95;9.60;;;;;;;;;;10316086;28;20056;-68
2023/03/31 10:52:26;;;;;;;17.65;9.90;;;;;;;;;;10315958;28;20109;-68
2023/03/31 10:57:29;;;;;;;10.77;8.30;;;;;;;;;;10315765;28;20075;-68
2023/03/31 11:02:42;;;;;;;11.98;9.20;;;;;;;;;;10315257;28;20072;-67
2023/03/31 11:07:47;;;;;;;7.82;7.03;;;;;;;;;;10315602;28;20083;-68
2023/03/31 11:12:50;;;;;;;13.20;8.50;;;;;;;;;;10315716;28;20079;-66
2023/03/31 11:17:58;;;;;;;7.47;6.43;;;;;;;;;;10314472;28;20068;-66
2023/03/31 11:23:00;;;;;;;6.93;5.80;;;;;;;;;;10314096;28;20072;-66
2023/03/31 11:28:05;;;;;;;8.05;7.18;;;;;;;;;;10314774;28;20087;-66
2023/03/31 11:33:13;;;;;;;8.00;5.97;;;;;;;;;;10314319;28;20068;-66
2023/03/31 11:38:18;;;;;;;5.50;4.22;;;;;;;;;;10301854;28;20080;-66
2023/03/31 11:43:24;;;;;;;14.05;9.38;;;;;;;;;;10315051;28;20068;-66
2023/03/31 11:48:28;;;;;;;6.15;5.50;;;;;;;;;;10313876;28;20094;-66
2023/03/31 11:53:28;;;;;;;4.37;3.77;;;;;;;;;;10315004;28;20037;-66
2023/03/31 11:58:30;;;;;;;9.15;6.50;;;;;;;;;;10307701;28;20075;-66
2023/03/31 12:03:33;;;;;;;5.90;4.90;;;;;;;;;;10309450;28;20044;-66
2023/03/31 12:08:35;;;;;;;4.13;3.47;;;;;;;;;;10314615;28;20430;-66
2023/03/31 12:13:40;;;;;;;5.63;2.58;;;;;;;;;;10314539;28;20080;-66
2023/03/31 12:18:38;;;;;;;;;;;;;;;;;;10314895;28;20347;-66
2023/03/31 12:23:39;;;;;;;8.18;5.88;;;;;;;;;;10312995;28;19955;-66
2023/03/31 12:28:39;;;;;;;8.35;2.78;;;;;;;;;;10314245;28;20036;-67
2023/03/31 12:33:39;;;;;;;3.63;2.55;;;;;;;;;;10314273;28;20048;-66
2023/03/31 12:38:46;;;;;;;5.18;3.25;;;;;;;;;;10312907;28;20081;-67
2023/03/31 12:43:54;;;;;;;3.85;2.40;;;;;;;;;;10320590;28;20112;-67
2023/03/31 12:48:59;;;;;;;5.38;2.75;;;;;;;;;;10321295;28;20071;-66
2023/03/31 12:54:05;;;;;;;6.80;3.67;;;;;;;;;;10320153;28;20047;-66
2023/03/31 12:59:17;;;;;;;4.75;3.58;;;;;;;;;;10319998;28;20528;-67
2023/03/31 13:04:20;;;;;;;5.53;2.78;;;;;;;;;;10306867;28;20102;-67
2023/03/31 13:09:39;;;;;;;4.20;2.60;;;;;;;;;;10318173;28;20060;-66
2023/03/31 13:14:40;;;;;;;5.38;3.25;;;;;;;;;;10314750;28;20080;-67
2023/03/31 13:19:40;;;;;;;6.75;2.85;;;;;;;;;;10319672;28;20496;-67
2023/03/31 13:24:39;;;;;;;3.08;2.33;;;;;;;;;;10309896;28;20065;-66
2023/03/31 13:29:41;;;;;;;6.20;3.60;;;;;;;;;;10314771;28;20064;-66
2023/03/31 13:34:42;;;;;;;5.75;4.03;;;;;;;;;;10318525;28;20060;-66
2023/03/31 13:39:49;;;;;;;8.73;3.92;;;;;;;;;;10318169;28;20493;-67
2023/03/31 13:44:56;;;;;;;6.32;2.85;;;;;;;;;;10318418;28;20048;-66
2023/03/31 13:50:03;;;;;;;4.60;3.08;;;;;;;;;;10318131;28;20064;-67
2023/03/31 13:55:28;;;;;;;3.72;3.38;;;;;;;;;;10317536;28;20158;-66
2023/03/31 14:00:39;;;;;;;4.47;2.97;;;;;;;;;;10282237;28;20084;-66
2023/03/31 14:05:39;;;;;;;11.45;5.55;;;;;;;;;;10296809;28;20339;-67
2023/03/31 14:10:39;;;;;;;9.32;6.82;;;;;;;;;;10287730;28;20033;-68
2023/03/31 14:15:40;;;;;;;16.35;11.20;;;;;;;;;;10305256;28;20064;-68
2023/03/31 14:20:42;;;;;;;24.75;15.98;;;;;;;;;;10295902;28;20086;-68
2023/03/31 14:25:46;;;;;;;19.75;10.75;;;;;;;;;;10294178;28;20467;-67
2023/03/31 14:30:51;;;;;;;15.13;8.95;;;;;;;;;;10281775;28;20076;-69
2023/03/31 14:35:53;;;;;;;11.80;9.13;;;;;;;;;;10297314;28;20102;-69
2023/03/31 14:40:55;;;;;;;8.05;5.13;;;;;;;;;;10281315;28;20091;-69
2023/03/31 14:45:59;;;;;;;7.50;6.18;;;;;;;;;;10300783;28;20068;-69
2023/03/31 14:50:58;;;;;;;21.20;15.20;;;;;;;;;;10295459;28;20098;-68
2023/03/31 14:56:00;;;;;;;14.65;8.68;;;;;;;;;;10292690;28;20080;-69
2023/03/31 15:01:00;;;;;;;29.00;16.20;;;;;;;;;;10292146;28;20079;-70
2023/03/31 15:05:59;;;;;;;10.93;7.07;;;;;;;;;;10286939;28;20068;-69
2023/03/31 15:11:02;;;;;;;16.58;11.43;;;;;;;;;;10324332;28;20066;-69
2023/03/31 15:16:21;;;;;;;15.75;8.20;;;;;;;;;;10311986;28;20068;-68
2023/03/31 15:21:21;;;;;;;26.40;17.67;;;;;;;;;;10289188;28;20076;-69
2023/03/31 15:26:21;;;;;;;7.70;5.25;;;;;;;;;;10299271;28;20079;-68
2023/03/31 15:31:41;;;;;;;10.25;6.20;;;;;;;;;;10271261;28;20104;-68
2023/03/31 15:36:39;;;;;;;32.00;18.88;;;;;;;;;;10298892;28;20080;-68
2023/03/31 15:41:38;;;;;;;36.55;18.67;;;;;;;;;;10280122;28;20080;-68
2023/03/31 15:46:50;;;;;;;14.25;8.50;;;;;;;;;;10298684;28;20068;-70
2023/03/31 15:51:49;;;;;;;19.65;13.07;;;;;;;;;;10297369;28;20079;-69
2023/03/31 15:56:48;;;;;;;23.25;15.30;;;;;;;;;;10295586;28;20469;-69
2023/03/31 16:01:48;;;;;;;23.48;11.85;;;;;;;;;;10281323;28;20068;-69
2023/03/31 16:06:52;;;;;;;60.83;30.70;;;;;;;;;;10291802;28;20068;-69
2023/03/31 16:11:52;;;;;;;51.95;27.95;;;;;;;;;;10290970;28;20947;-69
2023/03/31 16:16:51;;;;;;;68.82;39.92;;;;;;;;;;10291259;28;20693;-69
2023/03/31 16:21:53;;;;;;;44.05;24.45;;;;;;;;;;10291721;28;20073;-69
2023/03/31 16:26:52;;;;;;;70.03;37.05;;;;;;;;;;10292364;28;20072;-69
2023/03/31 16:31:50;;;;;;;54.88;29.65;;;;;;;;;;10289257;28;20076;-67
2023/03/31 16:36:49;;;;;;;42.33;28.48;;;;;;;;;;10300118;28;20069;-69
2023/03/31 16:41:48;;;;;;;25.45;16.95;;;;;;;;;;10287865;28;20087;-68
2023/03/31 16:46:47;;;;;;;26.08;17.05;;;;;;;;;;10307196;28;20060;-68
2023/03/31 16:51:45;;;;;;;32.38;22.42;;;;;;;;;;10300288;28;20064;-69
2023/03/31 16:56:43;;;;;;;19.70;15.48;;;;;;;;;;10289499;28;20060;-69
2023/03/31 17:01:44;;;;;;;27.60;17.88;;;;;;;;;;10294231;28;20069;-68
2023/03/31 17:06:42;;;;;;;21.40;14.52;;;;;;;;;;10291118;28;20067;-68
2023/03/31 17:11:41;;;;;;;5.03;4.40;;;;;;;;;;10299466;28;20065;-69
2023/03/31 17:16:39;;;;;;;6.30;3.83;;;;;;;;;;10306579;28;20069;-69
2023/03/31 17:22:00;;;;;;;13.30;8.35;;;;;;;;;;10294563;28;20547;-68
2023/03/31 17:26:59;;;;;;;10.77;7.45;;;;;;;;;;10314434;28;20072;-68
2023/03/31 17:31:57;;;;;;;34.38;21.45;;;;;;;;;;10304563;28;20075;-68
2023/03/31 17:36:55;;;;;;;20.88;11.30;;;;;;;;;;10302772;28;20086;-68
2023/03/31 17:41:56;;;;;;;16.58;10.70;;;;;;;;;;10285045;28;20085;-69
2023/03/31 17:46:54;;;;;;;75.75;36.42;;;;;;;;;;10300291;28;20064;-69
2023/03/31 17:51:52;;;;;;;106.32;48.45;;;;;;;;;;10301489;28;20159;-69
2023/03/31 17:56:51;;;;;;;34.17;22.42;;;;;;;;;;10293305;28;20072;-69
2023/03/31 18:01:51;;;;;;;15.93;11.07;;;;;;;;;;10298460;28;20098;-70
2023/03/31 18:06:50;;;;;;;13.95;9.27;;;;;;;;;;10303014;28;20075;-69
2023/03/31 18:11:48;;;;;;;11.35;9.27;;;;;;;;;;10290039;28;20063;-68
2023/03/31 18:16:47;;;;;;;13.32;9.50;;;;;;;;;;10297100;28;20068;-68
2023/03/31 18:21:47;;;;;;;9.18;6.30;;;;;;;;;;10300914;28;20502;-67
2023/03/31 18:26:45;;;;;;;14.73;10.10;;;;;;;;;;10293223;28;20079;-67
2023/03/31 18:31:43;;;;;;;6.93;5.78;;;;;;;;;;10300364;28;20068;-67
2023/03/31 18:36:42;;;;;;;6.65;4.65;;;;;;;;;;10289196;28;20072;-67
2023/03/31 18:41:44;;;;;;;8.05;6.43;;;;;;;;;;10280185;28;20574;-68
2023/03/31 18:46:42;;;;;;;10.35;7.53;;;;;;;;;;10291644;28;20445;-67
2023/03/31 18:51:40;;;;;;;6.53;4.30;;;;;;;;;;10310034;28;20065;-67
2023/03/31 18:56:38;;;;;;;6.90;5.65;;;;;;;;;;10295859;28;20080;-67
2023/03/31 19:01:39;;;;;;;8.57;5.15;;;;;;;;;;10301411;28;20080;-67
2023/03/31 19:06:37;;;;;;;5.43;4.65;;;;;;;;;;10294968;28;20517;-67
2023/03/31 19:11:36;;;;;;;5.45;4.63;;;;;;;;;;10298813;28;20462;-66
2023/03/31 19:16:40;;;;;;;4.80;4.13;;;;;;;;;;10311580;28;20068;-67
2023/03/31 19:21:40;;;;;;;5.10;4.10;;;;;;;;;;10292488;28;20072;-67
2023/03/31 19:26:39;;;;;;;7.60;4.43;;;;;;;;;;10295317;28;20063;-67
2023/03/31 19:31:39;;;;;;;5.03;3.90;;;;;;;;;;10303816;28;20068;-67
2023/03/31 19:36:37;;;;;;;6.47;4.57;;;;;;;;;;10308433;28;20081;-67
2023/03/31 19:41:37;;;;;;;6.50;5.30;;;;;;;;;;10294021;28;20107;-67
2023/03/31 19:46:35;;;;;;;10.10;8.30;;;;;;;;;;10291570;28;20041;-67
2023/03/31 19:51:33;;;;;;;13.88;11.00;;;;;;;;;;10298845;28;20076;-67
2023/03/31 19:56:32;;;;;;;6.30;5.50;;;;;;;;;;10295802;28;20072;-67
2023/03/31 20:01:31;;;;;;;7.90;5.15;;;;;;;;;;10304726;28;20072;-67
2023/03/31 20:06:30;;;;;;;14.45;12.80;;;;;;;;;;10300419;28;20788;-66
2023/03/31 20:11:30;;;;;;;8.88;7.93;;;;;;;;;;10303168;28;20088;-67
2023/03/31 20:16:30;;;;;;;7.03;6.05;;;;;;;;;;10301031;28;20064;-67
2023/03/31 20:21:30;;;;;;;5.95;4.30;;;;;;;;;;10290599;28;20061;-67
2023/03/31 20:26:29;;;;;;;4.25;3.85;;;;;;;;;;10293856;28;20064;-67
2023/03/31 20:31:29;;;;;;;6.03;4.72;;;;;;;;;;10297088;28;20068;-66
2023/03/31 20:36:30;;;;;;;38.75;26.90;;;;;;;;;;10302778;28;20825;-66
2023/03/31 20:41:30;;;;;;;10.20;7.65;;;;;;;;;;10289011;28;20525;-67
2023/03/31 20:46:29;;;;;;;6.30;3.67;;;;;;;;;;10304436;28;20071;-67
2023/03/31 20:51:28;;;;;;;6.07;4.28;;;;;;;;;;10300699;28;20072;-66
2023/03/31 20:56:27;;;;;;;5.75;4.13;;;;;;;;;;10304896;28;20087;-66
2023/03/31 21:01:28;;;;;;;6.93;4.00;;;;;;;;;;10308060;28;20530;-66
2023/03/31 21:06:27;;;;;;;7.03;4.82;;;;;;;;;;10297803;28;20071;-66
2023/03/31 21:11:26;;;;;;;6.13;4.68;;;;;;;;;;10298523;28;20065;-66
2023/03/31 21:16:24;;;;;;;6.57;4.28;;;;;;;;;;10285355;28;20068;-66
2023/03/31 21:21:24;;;;;;;7.38;4.80;;;;;;;;;;10278807;28;20414;-67
2023/03/31 21:26:23;;;;;;;7.78;4.97;;;;;;;;;;10300884;28;20064;-66
2023/03/31 21:31:22;;;;;;;5.65;4.32;;;;;;;;;;10298632;28;20070;-67
2023/03/31 21:36:21;;;;;;;5.47;4.22;;;;;;;;;;10300015;28;20064;-67
2023/03/31 21:41:22;;;;;;;6.00;4.50;;;;;;;;;;10289576;28;20069;-66
2023/03/31 21:46:22;;;;;;;6.25;4.78;;;;;;;;;;10308303;28;20071;-66
2023/03/31 21:51:21;;;;;;;6.82;4.38;;;;;;;;;;10298221;28;20067;-66
2023/03/31 21:56:21;;;;;;;8.40;4.90;;;;;;;;;;10299032;28;20588;-66
2023/03/31 22:01:20;;;;;;;5.88;3.97;;;;;;;;;;10282114;28;20088;-66
2023/03/31 22:06:18;;;;;;;5.55;4.53;;;;;;;;;;10301875;28;20071;-67
2023/03/31 22:11:17;;;;;;;4.55;3.97;;;;;;;;;;10298340;28;20067;-66
2023/03/31 22:16:18;;;;;;;5.57;4.32;;;;;;;;;;10310590;28;20418;-66
2023/03/31 22:21:17;;;;;;;6.55;4.40;;;;;;;;;;10314168;28;20063;-67
2023/03/31 22:26:15;;;;;;;4.57;4.18;;;;;;;;;;10301705;28;20088;-67
2023/03/31 22:31:14;;;;;;;5.38;4.20;;;;;;;;;;10308895;28;20060;-67
2023/03/31 22:36:13;;;;;;;5.38;4.88;;;;;;;;;;10307129;28;20081;-67
2023/03/31 22:41:12;;;;;;;7.30;5.28;;;;;;;;;;10313355;28;20132;-66
2023/03/31 22:46:10;;;;;;;10.18;6.63;;;;;;;;;;10316527;28;20478;-66
2023/03/31 22:51:10;;;;;;;7.30;4.70;;;;;;;;;;10287310;28;20072;-66
2023/03/31 22:56:11;;;;;;;9.70;5.97;;;;;;;;;;10290384;28;20076;-66
2023/03/31 23:01:13;;;;;;;16.85;10.55;;;;;;;;;;10304834;28;20075;-66
2023/03/31 23:06:12;;;;;;;15.73;9.85;;;;;;;;;;10296464;28;20549;-66
2023/03/31 23:11:12;;;;;;;11.30;7.55;;;;;;;;;;10304841;28;20083;-66
2023/03/31 23:16:12;;;;;;;6.55;4.90;;;;;;;;;;10302193;28;20471;-67
2023/03/31 23:21:10;;;;;;;4.97;4.38;;;;;;;;;;10314236;28;20071;-67
2023/03/31 23:26:09;;;;;;;4.72;4.25;;;;;;;;;;10282617;28;20072;-65
2023/03/31 23:31:09;;;;;;;4.30;3.70;;;;;;;;;;10302587;28;20064;-66
2023/03/31 23:36:08;;;;;;;5.57;3.63;;;;;;;;;;10295249;28;20068;-66
2023/03/31 23:41:06;;;;;;;6.43;3.58;;;;;;;;;;10296580;28;20072;-65
2023/03/31 23:46:05;;;;;;;5.65;4.30;;;;;;;;;;10310152;28;20606;-67
2023/03/31 23:51:06;;;;;;;5.45;4.25;;;;;;;;;;10306256;28;20060;-66
2023/03/31 23:56:06;;;;;;;4.15;3.47;;;;;;;;;;10293976;28;20074;-66
